createdAt,value
2022-09-30T00:01:59.953Z,100654.91
2022-09-30T00:04:27.980Z,100666.97
2022-09-30T00:06:55.985Z,100660.13
2022-09-30T00:09:24.387Z,100660.25
2022-09-30T00:11:52.561Z,100658.38
2022-09-30T00:14:23.915Z,100668.69
2022-09-30T00:16:53.562Z,100673.19
2022-09-30T00:19:21.855Z,100672.19
2022-09-30T00:21:49.926Z,100682.50
2022-09-30T00:24:20.125Z,100673.97
2022-09-30T00:26:48.349Z,100676.56
2022-09-30T00:29:16.412Z,100688.56
2022-09-30T00:31:46.123Z,100677.34
2022-09-30T00:34:14.189Z,100663.84
2022-09-30T00:36:49.367Z,100698.00
2022-09-30T00:39:19.687Z,100684.19
2022-09-30T00:41:52.537Z,100683.22
2022-09-30T00:44:56.671Z,100684.97
2022-09-30T00:47:31.680Z,100699.56
2022-09-30T00:50:12.939Z,100702.13
2022-09-30T00:52:41.934Z,100696.31
2022-09-30T00:55:22.474Z,100701.19
2022-09-30T00:57:50.709Z,100707.25
2022-09-30T01:00:18.914Z,100697.09
2022-09-30T01:02:50.806Z,100720.94
2022-09-30T01:05:18.913Z,100710.78
2022-09-30T01:07:49.666Z,100717.44
2022-09-30T01:10:19.122Z,100717.38
2022-09-30T01:12:47.177Z,100719.19
2022-09-30T01:15:33.591Z,100727.78
2022-09-30T01:18:25.352Z,100730.31
2022-09-30T01:21:30.122Z,100728.50
2022-09-30T01:24:35.013Z,100731.09
2022-09-30T01:27:13.330Z,100734.56
2022-09-30T01:30:12.397Z,100719.38
2022-09-30T01:33:04.753Z,100732.81
2022-09-30T01:35:39.007Z,100736.31
2022-09-30T01:38:29.423Z,100760.44
2022-09-30T01:41:30.414Z,100763.09
2022-09-30T01:44:24.232Z,100760.63
2022-09-30T01:46:55.004Z,100747.72
2022-09-30T01:49:40.033Z,100762.34
2022-09-30T01:52:26.555Z,100758.94
2022-09-30T01:55:03.007Z,100757.97
2022-09-30T01:57:59.310Z,100764.59
2022-09-30T02:00:29.075Z,100767.53
2022-09-30T02:03:12.849Z,100770.41
2022-09-30T02:05:52.784Z,100758.84
2022-09-30T02:08:29.825Z,100771.69
2022-09-30T02:11:20.487Z,100786.44
2022-09-30T02:14:03.572Z,100785.78
2022-09-30T02:17:04.752Z,100788.38
2022-09-30T02:19:44.857Z,100795.41
2022-09-30T02:22:45.052Z,100790.56
2022-09-30T02:25:23.770Z,100798.13
2022-09-30T02:28:00.884Z,100800.91
2022-09-30T02:30:30.181Z,100794.13
2022-09-30T09:40:37.225Z,101339.41
2022-09-30T09:43:38.177Z,101339.09
2022-09-30T09:46:45.357Z,101347.59
2022-09-30T09:49:24.806Z,101339.72
2022-09-30T09:52:13.264Z,101352.66
2022-09-30T09:54:44.613Z,101361.13
2022-09-30T09:57:16.756Z,101340.59
2022-09-30T10:00:44.697Z,101368.69
2022-09-30T10:03:17.086Z,101370.38
2022-09-30T10:05:48.248Z,101372.91
2022-09-30T10:08:21.590Z,101382.38
2022-09-30T10:10:56.114Z,101385.13
2022-09-30T10:13:30.574Z,101376.63
2022-09-30T10:16:02.257Z,101387.03
2022-09-30T10:18:35.848Z,101390.56
2022-09-30T10:21:07.067Z,101393.09
2022-09-30T10:23:40.525Z,101398.31
2022-09-30T10:29:28.146Z,101402.47
2022-09-30T10:31:59.987Z,101406.84
2022-09-30T10:34:32.762Z,101419.88
2022-09-30T10:37:09.166Z,101412.13
2022-09-30T10:39:41.305Z,101419.00
2022-09-30T10:42:10.540Z,101420.78
2022-09-30T10:44:47.316Z,101411.50
2022-09-30T10:47:20.413Z,101421.94
2022-09-30T10:49:53.631Z,101422.97
2022-09-30T10:52:28.954Z,101430.03
2022-09-30T10:54:59.634Z,101438.75
2022-09-30T10:57:35.163Z,101438.81
2022-09-30T11:00:09.953Z,101438.03
2022-09-30T11:02:50.509Z,101447.59
2022-09-30T11:05:25.753Z,101454.50
2022-09-30T11:08:16.852Z,101453.66
2022-09-30T11:11:11.088Z,101458.84
2022-09-30T11:16:48.690Z,101468.19
2022-09-30T11:19:34.357Z,101475.13
2022-09-30T11:22:27.437Z,101481.19
2022-09-30T11:24:58.842Z,101484.63
2022-09-30T11:27:29.623Z,101485.50
2022-09-30T11:30:25.133Z,101494.28
2022-09-30T11:33:07.518Z,101485.78
2022-09-30T11:35:56.206Z,101497.97
2022-09-30T11:38:39.200Z,101494.63
2022-09-30T11:41:22.921Z,101506.78
2022-09-30T11:43:58.927Z,101502.53
2022-09-30T11:46:47.382Z,101506.88
2022-09-30T11:49:51.977Z,101510.47
2022-09-30T11:52:48.174Z,101517.44
2022-09-30T11:55:52.960Z,101514.94
2022-09-30T11:58:46.827Z,101514.25
2022-09-30T12:01:29.295Z,101515.94
2022-09-30T12:04:13.720Z,101522.06
2022-09-30T12:06:56.664Z,101526.44
2022-09-30T12:09:37.964Z,101535.19
2022-09-30T12:12:16.772Z,101536.97
2022-09-30T12:15:11.003Z,101537.00
2022-09-30T12:17:46.487Z,101544.06
2022-09-30T12:20:20.833Z,101551.06
2022-09-30T12:22:51.760Z,101566.78
2022-09-30T12:25:41.309Z,101560.88
2022-09-30T12:28:43.681Z,101568.06
2022-09-30T12:31:20.793Z,101567.31
2022-09-30T12:34:22.042Z,101575.28
2022-09-30T12:36:57.687Z,101579.88
2022-09-30T12:39:50.322Z,101576.59
2022-09-30T12:42:34.927Z,101578.50
2022-09-30T12:45:15.164Z,101569.19
2022-09-30T12:47:55.906Z,101585.63
2022-09-30T12:50:27.474Z,101590.78
2022-09-30T12:52:58.173Z,101588.28
2022-09-30T12:55:40.041Z,101595.31
2022-09-30T12:58:20.999Z,101600.50
2022-09-30T13:01:06.979Z,101590.31
2022-09-30T13:04:09.882Z,101594.75
2022-09-30T13:06:47.167Z,101600.88
2022-09-30T13:09:18.094Z,101601.81
2022-09-30T13:12:14.103Z,101605.31
2022-09-30T13:14:44.165Z,101603.66
2022-09-30T13:17:12.448Z,101602.03
2022-09-30T13:19:47.185Z,101601.31
2022-09-30T13:22:31.031Z,101601.44
2022-09-30T13:25:00.153Z,101594.72
2022-09-30T13:27:36.686Z,101596.59
2022-09-30T13:30:18.333Z,101592.31
2022-09-30T13:33:07.252Z,101603.56
2022-09-30T13:35:52.234Z,101605.38
2022-09-30T13:38:24.960Z,101608.03
2022-09-30T13:41:05.366Z,101605.47
2022-09-30T13:43:48.128Z,101609.03
2022-09-30T13:46:25.178Z,101611.66
2022-09-30T13:49:04.230Z,101611.63
2022-09-30T13:51:34.846Z,101621.06
2022-09-30T13:54:25.275Z,101614.22
2022-09-30T13:56:56.286Z,101627.97
2022-09-30T13:59:48.323Z,101621.16
2022-09-30T14:02:34.727Z,101616.97
2022-09-30T14:05:18.103Z,101625.69
2022-09-30T14:08:28.509Z,101632.63
2022-09-30T14:11:31.634Z,101629.19
2022-09-30T14:14:19.157Z,101641.16
2022-09-30T14:17:20.723Z,101641.09
2022-09-30T14:19:59.163Z,101639.38
2022-09-30T14:22:30.684Z,101647.06
2022-09-30T14:24:59.050Z,101653.09
2022-09-30T14:28:01.649Z,101654.78
2022-09-30T14:30:35.472Z,101655.63
2022-09-30T14:33:25.720Z,101645.44
2022-09-30T14:38:46.857Z,101660.84
2022-09-30T14:41:21.329Z,101660.78
2022-09-30T14:43:54.588Z,101662.53
2022-09-30T14:46:36.069Z,101664.22
2022-09-30T14:49:11.465Z,101665.91
2022-09-30T14:51:45.234Z,101669.31
2022-09-30T14:54:27.150Z,101665.84
2022-09-30T14:56:55.980Z,101669.28
2022-09-30T14:59:27.953Z,101677.00
2022-09-30T15:02:02.229Z,101662.34
2022-09-30T15:04:33.737Z,101687.31
2022-09-30T15:07:06.211Z,101632.78
2022-09-30T15:09:48.639Z,101681.25
2022-09-30T15:12:23.557Z,101681.22
2022-09-30T15:15:02.283Z,101694.97
2022-09-30T15:17:38.404Z,101688.91
2022-09-30T15:20:40.031Z,101694.03
2022-09-30T15:23:19.488Z,101692.28
2022-09-30T15:25:48.758Z,101689.66
2022-09-30T15:32:03.722Z,101697.34
2022-09-30T15:34:32.198Z,101696.50
2022-09-30T15:37:15.077Z,101702.50
2022-09-30T15:40:06.574Z,101702.50
2022-09-30T15:42:52.449Z,101700.78
2022-09-30T15:45:40.206Z,101703.31
2022-09-30T15:48:28.438Z,101696.41
2022-09-30T15:51:01.881Z,101706.75
2022-09-30T15:53:41.308Z,101705.00
2022-09-30T15:56:38.451Z,101703.31
2022-09-30T15:59:09.213Z,101709.28
2022-09-30T16:01:43.651Z,101708.44
2022-09-30T16:04:17.937Z,101712.72
2022-09-30T16:07:01.371Z,101715.31
2022-09-30T16:09:38.980Z,101710.97
2022-09-30T16:12:21.063Z,101724.75
2022-09-30T16:15:00.866Z,101723.03
2022-09-30T16:17:38.615Z,101722.09
2022-09-30T16:20:22.152Z,101723.81
2022-09-30T16:22:52.169Z,101718.59
2022-09-30T16:25:32.880Z,101723.75
2022-09-30T16:28:03.634Z,101725.47
2022-09-30T16:30:32.910Z,101726.31
2022-09-30T16:33:06.954Z,101730.63
2022-09-30T16:35:35.381Z,101728.03
2022-09-30T16:38:06.327Z,101722.88
2022-09-30T16:40:39.935Z,101726.34
2022-09-30T16:43:10.654Z,101735.78
2022-09-30T16:45:40.482Z,101720.44
2022-09-30T16:48:19.457Z,101728.91
2022-09-30T16:51:15.174Z,101740.97
2022-09-30T16:53:46.342Z,101734.09
2022-09-30T16:56:20.088Z,101732.38
2022-09-30T16:58:48.274Z,101731.47
2022-09-30T17:01:24.411Z,101740.94
2022-09-30T17:03:56.442Z,101734.03
2022-09-30T17:06:30.661Z,101723.84
2022-09-30T17:08:59.547Z,101733.19
2022-09-30T17:11:33.860Z,101741.81
2022-09-30T17:14:03.387Z,101741.78
2022-09-30T17:16:31.697Z,101747.81
2022-09-30T17:19:00.067Z,101750.44
2022-09-30T17:21:29.035Z,101737.59
2022-09-30T17:23:57.117Z,101745.38
2022-09-30T17:26:25.229Z,101737.66
2022-09-30T17:28:55.412Z,101739.44
2022-09-30T17:31:25.819Z,101747.16
2022-09-30T17:33:53.703Z,101746.28
2022-09-30T17:36:21.928Z,101742.81
2022-09-30T17:38:54.327Z,101740.25
2022-09-30T17:41:41.924Z,101742.84
2022-09-30T17:44:09.910Z,101747.13
2022-09-30T17:46:44.465Z,101748.84
2022-09-30T17:49:15.508Z,101750.50
2022-09-30T17:51:43.729Z,101755.63
2022-09-30T17:54:13.739Z,101754.78
2022-09-30T17:56:44.719Z,101754.03
2022-09-30T17:59:12.686Z,101760.91
2022-09-30T18:01:43.854Z,101765.16
2022-09-30T18:04:12.276Z,101756.59
2022-09-30T18:06:40.199Z,101761.75
2022-09-30T18:09:08.197Z,101767.75
2022-09-30T18:11:42.820Z,101773.00
2022-09-30T18:14:12.776Z,101761.88
2022-09-30T18:16:41.117Z,101754.97
2022-09-30T18:19:11.313Z,101773.84
2022-09-30T18:21:39.580Z,101758.38
2022-09-30T18:24:08.200Z,101778.06
2022-09-30T18:26:36.331Z,101741.41
2022-09-30T18:29:05.837Z,101783.16
2022-09-30T18:31:38.278Z,101781.38
2022-09-30T18:34:08.922Z,101775.41
2022-09-30T18:36:37.733Z,101782.31
2022-09-30T18:39:05.920Z,101792.63
2022-09-30T18:41:36.370Z,101776.41
2022-09-30T18:44:05.345Z,101791.78
2022-09-30T18:46:33.289Z,101791.75
2022-09-30T18:49:02.499Z,101778.03
2022-09-30T18:51:31.117Z,101792.59
2022-09-30T18:54:01.870Z,101787.44
2022-09-30T18:56:33.704Z,101786.56
2022-09-30T19:01:37.359Z,101784.84
2022-09-30T19:04:06.379Z,101790.00
2022-09-30T19:06:35.448Z,101778.94
2022-09-30T19:09:03.399Z,101788.25
2022-09-30T19:11:32.893Z,101795.97
2022-09-30T19:14:02.947Z,101789.03
2022-09-30T19:16:38.669Z,101777.84
2022-09-30T19:19:11.092Z,101783.84
2022-09-30T19:21:40.434Z,101782.09
2022-09-30T19:24:09.886Z,101783.78
2022-09-30T19:26:40.353Z,101782.91
2022-09-30T19:29:10.355Z,101774.38
2022-09-30T19:31:38.502Z,101782.81
2022-09-30T19:34:06.980Z,101784.56
2022-09-30T19:36:45.030Z,101774.34
2022-09-30T19:39:17.603Z,101771.59
2022-09-30T19:41:47.143Z,101787.09
2022-09-30T19:44:20.781Z,101793.97
2022-09-30T19:46:52.644Z,101787.94
2022-09-30T19:49:22.241Z,101788.94
2022-09-30T19:51:53.583Z,101792.22
2022-09-30T19:54:37.631Z,101787.09
2022-09-30T19:57:09.225Z,101785.44
2022-09-30T19:59:37.330Z,101793.19
2022-09-30T20:02:05.317Z,101795.81
2022-09-30T20:04:34.862Z,101790.63
2022-09-30T20:07:02.993Z,101796.69
2022-09-30T20:09:31.808Z,101813.03
2022-09-30T20:11:59.819Z,101801.81
2022-09-30T20:14:46.453Z,101801.03
2022-09-30T20:17:14.429Z,101798.47
2022-09-30T20:19:42.414Z,101804.53
2022-09-30T20:22:12.088Z,101801.91
2022-09-30T20:24:40.208Z,101804.47
2022-09-30T20:27:09.036Z,101810.50
2022-09-30T20:29:38.208Z,101807.91
2022-09-30T20:32:06.334Z,101816.53
2022-09-30T20:34:38.567Z,101814.66
2022-09-30T20:37:06.982Z,101827.56
2022-09-30T20:39:35.975Z,101819.81
2022-09-30T20:42:03.993Z,101825.84
2022-09-30T20:44:33.868Z,101823.25
2022-09-30T20:47:03.347Z,101815.47
2022-09-30T20:49:31.357Z,101821.56
2022-09-30T20:52:07.613Z,101830.22
2022-09-30T20:54:38.885Z,101825.06
2022-09-30T20:57:07.949Z,101816.47
2022-09-30T20:59:36.253Z,101814.69
2022-09-30T21:02:05.158Z,101823.28
2022-09-30T21:04:33.978Z,101818.16
2022-09-30T21:07:04.528Z,101824.19
2022-09-30T21:09:35.269Z,101826.78
2022-09-30T21:12:03.263Z,101822.47
2022-09-30T21:14:33.618Z,101827.59
2022-09-30T21:17:01.553Z,101839.66
2022-09-30T21:19:29.616Z,101829.34
2022-09-30T21:21:59.540Z,101829.31
2022-09-30T21:24:27.904Z,101831.00
2022-09-30T21:26:56.601Z,101830.06
2022-09-30T21:30:15.533Z,101835.25
2022-09-30T21:32:46.569Z,101827.59
2022-09-30T21:35:14.842Z,101824.94
2022-09-30T21:37:43.908Z,101836.09
2022-09-30T21:40:12.844Z,101833.53
2022-09-30T21:42:40.818Z,101837.81
2022-09-30T21:45:10.578Z,101837.81
2022-09-30T21:47:38.516Z,101841.22
2022-09-30T21:50:07.171Z,101830.81
2022-09-30T21:52:35.349Z,101840.22
2022-09-30T21:55:03.617Z,101847.94
2022-09-30T21:57:31.569Z,101843.59
2022-09-30T22:00:00.454Z,101849.63
2022-09-30T22:02:28.378Z,101847.91
2022-09-30T22:04:56.397Z,101851.31
2022-09-30T22:07:25.825Z,101851.25
2022-09-30T22:09:53.893Z,101856.38
2022-09-30T22:12:22.997Z,101858.94
2022-09-30T22:14:52.064Z,101859.75
2022-09-30T22:17:20.017Z,101858.00
2022-09-30T22:19:48.473Z,101860.59
2022-09-30T22:22:17.601Z,101862.34
2022-09-30T22:24:45.525Z,101864.00
2022-09-30T22:27:14.698Z,101867.44
2022-09-30T22:29:44.614Z,101865.69
2022-09-30T22:32:12.655Z,101873.41
2022-09-30T22:34:59.035Z,101869.94
2022-09-30T22:37:45.250Z,101870.75
2022-09-30T22:40:13.343Z,101869.06
2022-09-30T22:42:41.329Z,101869.88
2022-09-30T22:45:09.812Z,101872.47
2022-09-30T22:47:37.942Z,101872.50
2022-09-30T22:50:06.200Z,101873.34
2022-09-30T22:52:34.167Z,101881.09
2022-09-30T22:55:02.498Z,101878.50
2022-09-30T22:57:49.807Z,101884.47
2022-09-30T23:00:18.678Z,101875.91
2022-09-30T23:02:46.813Z,101887.00
2022-09-30T23:05:29.455Z,101891.28
2022-09-30T23:07:57.440Z,101885.22
2022-09-30T23:10:25.371Z,101886.91
2022-09-30T23:12:53.583Z,101890.34
2022-09-30T23:15:21.510Z,101895.50
2022-09-30T23:17:49.574Z,101902.31
2022-09-30T23:20:18.799Z,101904.03
2022-09-30T23:22:47.626Z,101907.50
2022-09-30T23:25:15.660Z,101906.63
2022-09-30T23:27:49.587Z,101912.63
2022-09-30T23:30:17.849Z,101908.38
2022-09-30T23:32:45.733Z,101907.50
2022-09-30T23:35:34.209Z,101923.75
2022-09-30T23:38:02.186Z,101916.00
2022-09-30T23:40:31.601Z,101916.88
2022-09-30T23:42:59.679Z,101916.00
2022-09-30T23:45:27.653Z,101925.47
2022-09-30T23:47:57.066Z,101918.56
2022-09-30T23:50:27.585Z,101928.84
2022-09-30T23:52:55.566Z,101934.03
2022-09-30T23:55:23.525Z,101925.47
2022-09-30T23:57:51.776Z,101935.88
